Latest Weather Observations for Mount Hotham

IDV60801

Issued at 3:32 am EDT Wednesday 22 February 2017 (issued every 30 minutes, with the page automatically refreshed every 10 minutes)

About weather observations | Map of weather stations | Latest weather observations for VIC | Other Formats
Station Details ID: 083085 Name: MOUNT HOTHAM Lat: -36.98 Lon: 147.13 Height: 1849.0 m
Data from the previous 72 hours. | See also: Recent months at Mount Hotham
Date/Time
EDT
Temp
°C
App
Temp
°C
Dew
Point
°C
Rel
Hum
%
Delta-T
°C
Wind Press
QNH
hPa
Press
MSL
hPa
Rain since
9am
mm
Dir  Spd
km/h
Gust
km/h
Spd
kts
Gust
kts
22/03:30am 9.8 - - - - NNE 52 59 28 32 - - 0.2
22/03:00am 10.4 - - - - NNE 52 67 28 36 - - 0.2
22/02:30am 10.3 - - - - NNE 48 59 26 32 - - 0.2
22/02:00am 9.4 - - - - NNE 39 44 21 24 - - 0.2
22/01:30am 9.2 - - - - NNE 33 37 18 20 - - 0.2
22/01:00am 9.8 - - - - NNE 39 46 21 25 - - 0.2
22/12:30am 9.4 - - - - NNE 35 41 19 22 - - 0.2
22/12:00am 9.7 - - - - NNE 35 43 19 23 - - 0.2
 
Date/Time
EDT
Temp
°C
App
Temp
°C
Dew
Point
°C
Rel
Hum
%
Delta-T
°C
Wind Press
QNH
hPa
Press
MSL
hPa
Rain since
9am
mm
Dir  Spd
km/h
Gust
km/h
Spd
kts
Gust
kts
21/11:30pm 10.5 - - - - NNE 32 37 17 20 - - 0.2
21/11:00pm 10.7 - - - - NNE 28 35 15 19 - - 0.2
21/10:30pm 10.5 - - - - NE 24 32 13 17 - - 0.2
21/10:00pm 8.8 - - - - NE 17 22 9 12 - - 0.2
21/09:30pm 8.8 - - - - ENE 7 11 4 6 - - 0.2
21/09:00pm 9.3 - - - - E 7 9 4 5 - - 0.2
21/08:30pm 8.7 - - - - E 4 7 2 4 - - 0.2
21/08:00pm 9.6 - - - - E 2 6 1 3 - - 0.2
21/07:30pm 10.9 - - - - CALM 0 0 0 0 - - 0.2
21/07:00pm 11.5 - - - - SE 6 11 3 6 - - 0.2
21/06:30pm 11.4 - - - - S 6 11 3 6 - - 0.2
21/06:00pm 11.4 - - - - SSW 7 11 4 6 - - 0.2
21/05:30pm 11.3 - - - - SSW 9 13 5 7 - - 0.2
21/05:00pm 10.9 - - - - S 9 13 5 7 - - 0.2
21/04:30pm 11.6 - - - - W 11 15 6 8 - - 0.2
21/04:00pm 11.3 - - - - NNW 9 19 5 10 - - 0.2
21/03:30pm 10.3 - - - - NW 11 19 6 10 - - 0.2
21/03:00pm 10.7 - - - - NNW 13 20 7 11 - - 0.2
21/02:30pm 10.1 - - - - WNW 11 24 6 13 - - 0.2
21/02:00pm 10.3 - - - - NNW 13 19 7 10 - - 0.2
21/01:30pm 9.3 - - - - NW 11 20 6 11 - - 0.2
21/01:00pm 8.3 - - - - NNW 13 20 7 11 - - 0.0
21/12:30pm 8.0 - - - - NW 15 19 8 10 - - 0.0
21/12:00pm 7.9 - - - - NW 20 26 11 14 - - 0.0
21/11:30am 6.5 - - - - NNW 17 24 9 13 - - 0.0
21/11:00am 6.2 - - - - NNW 22 26 12 14 - - 0.0
21/10:30am 6.0 - - - - NNW 24 28 13 15 - - 0.0
21/10:00am 4.6 - - - - NNW 28 35 15 19 - - 0.0
21/09:30am 3.9 - - - - NNW 30 35 16 19 - - 0.0
21/09:00am 3.4 - - - - NW 28 35 15 19 - - 21.4
21/08:30am 2.9 - - - - NW 28 32 15 17 - - 21.4
21/08:00am 2.5 - - - - NNW 28 33 15 18 - - 21.4
21/07:30am 2.0 - - - - NNW 24 32 13 17 - - 21.4
21/07:00am 1.5 - - - - N 24 30 13 16 - - 21.4
21/06:30am 1.7 - - - - NNW 28 37 15 20 - - 21.4
21/06:00am 1.7 - - - - NNW 26 43 14 23 - - 21.4
21/05:30am 2.0 - - - - N 32 43 17 23 - - 21.4
21/05:00am 1.9 - - - - NNW 30 43 16 23 - - 21.4
21/04:30am 1.9 - - - - NNW 32 41 17 22 - - 21.4
21/04:00am 1.9 - - - - NNW 32 41 17 22 - - 21.4
21/03:30am 1.6 - - - - NNW 28 35 15 19 - - 21.4
21/03:00am 1.4 - - - - NNW 24 32 13 17 - - 21.4
21/02:30am 1.6 - - - - NW 32 37 17 20 - - 21.4
21/02:00am 1.1 - - - - NNW 24 30 13 16 - - 21.4
21/01:30am 0.9 - - - - NNW 17 24 9 13 - - 21.4
21/01:00am 1.3 - - - - WNW 19 24 10 13 - - 21.4
21/12:30am 1.3 - - - - WNW 19 24 10 13 - - 21.4
21/12:00am 1.3 - - - - NW 20 26 11 14 - - 21.4
 
Date/Time
EDT
Temp
°C
App
Temp
°C
Dew
Point
°C
Rel
Hum
%
Delta-T
°C
Wind Press
QNH
hPa
Press
MSL
hPa
Rain since
9am
mm
Dir  Spd
km/h
Gust
km/h
Spd
kts
Gust
kts
20/11:30pm 1.5 - - - - NW 19 24 10 13 - - 21.4
20/11:00pm 1.9 - - - - WNW 24 30 13 16 - - 21.4
20/10:30pm 2.3 - - - - NW 20 24 11 13 - - 21.4
20/10:00pm 2.5 - - - - NW 19 28 10 15 - - 21.4
20/09:30pm 2.6 - - - - NW 17 26 9 14 - - 21.4
20/09:00pm 2.5 - - - - WNW 19 28 10 15 - - 21.4
20/08:30pm 2.5 - - - - WNW 17 22 9 12 - - 21.4
20/08:00pm 2.5 - - - - NW 20 28 11 15 - - 21.4
20/07:30pm 2.4 - - - - WNW 20 30 11 16 - - 21.4
20/07:00pm 2.4 - - - - WNW 20 28 11 15 - - 21.4
20/06:30pm 2.4 - - - - WNW 20 32 11 17 - - 21.4
20/06:00pm 1.9 - - - - WNW 30 43 16 23 - - 21.4
20/05:30pm 2.1 - - - - WSW 22 35 12 19 - - 21.0
20/05:00pm 1.7 - - - - WSW 17 24 9 13 - - 20.6
20/04:30pm 1.6 - - - - WNW 32 48 17 26 - - 20.0
20/04:24pm 1.5 - - - - W 28 48 15 26 - - 20.0
20/04:00pm 1.3 - - - - WNW 22 35 12 19 - - 19.4
20/03:30pm 1.3 - - - - WNW 28 39 15 21 - - 19.0
20/03:00pm 1.1 - - - - NW 24 35 13 19 - - 18.6
20/02:30pm 0.6 - - - - WNW 22 32 12 17 - - 18.6
20/02:00pm 0.5 - - - - NW 22 37 12 20 - - 18.4
20/01:30pm 0.2 - - - - NNW 28 37 15 20 - - 16.2
20/01:00pm 0.0 - - - - NNW 24 35 13 19 - - 13.0
20/12:30pm -0.1 - - - - NNW 24 33 13 18 - - 9.4
20/12:00pm -0.1 - - - - NNW 24 32 13 17 - - 5.0
20/11:30am -0.2 - - - - NNW 24 30 13 16 - - 0.0
20/11:00am -0.2 - - - - NW 22 28 12 15 - - 0.0
20/10:30am -0.4 - - - - NW 20 26 11 14 - - 0.0
20/10:00am -0.5 - - - - NW 19 24 10 13 - - 0.0
20/09:30am -0.6 - - - - NW 20 26 11 14 - - 0.0
20/09:00am -0.7 - - - - NW 20 26 11 14 - - 0.8
20/08:30am -0.9 - - - - NW 22 30 12 16 - - 0.8
20/08:00am -1.0 - - - - WNW 20 26 11 14 - - 0.8
20/07:30am -1.2 - - - - NW 17 24 9 13 - - 0.8
20/07:00am -1.5 - - - - WNW 24 30 13 16 - - 0.8
20/06:30am -1.6 - - - - NW 24 30 13 16 - - 0.8
20/06:00am -1.7 - - - - WNW 24 32 13 17 - - 0.8
20/05:30am -2.0 - - - - WNW 24 33 13 18 - - 0.8
20/05:00am -1.9 - - - - WNW 22 30 12 16 - - 0.8
20/04:30am -1.8 - - - - NW 22 32 12 17 - - 0.8
20/04:00am -1.8 - - - - NW 20 30 11 16 - - 0.8
20/03:30am -1.8 - - - - NW 28 35 15 19 - - 0.8
20/03:00am -1.9 - - - - NW 20 28 11 15 - - 0.8
20/02:30am -2.1 - - - - WNW 20 28 11 15 - - 0.8
20/02:00am -2.0 - - - - W 15 32 8 17 - - 0.8
20/01:30am -1.7 - - - - NW 19 30 10 16 - - 0.8
20/01:00am -1.7 - - - - WSW 20 28 11 15 - - 0.8
20/12:30am -1.5 - - - - W 19 35 10 19 - - 0.8
20/12:00am -1.4 - - - - WNW 19 26 10 14 - - 0.8
 
Date/Time
EDT
Temp
°C
App
Temp
°C
Dew
Point
°C
Rel
Hum
%
Delta-T
°C
Wind Press
QNH
hPa
Press
MSL
hPa
Rain since
9am
mm
Dir  Spd
km/h
Gust
km/h
Spd
kts
Gust
kts
19/11:30pm -1.3 - - - - N 24 32 13 17 - - 0.8
19/11:00pm -0.8 - - - - NNW 22 32 12 17 - - 0.8
19/10:30pm -1.0 - - - - WNW 17 26 9 14 - - 0.8
19/10:00pm -0.8 - - - - NW 17 24 9 13 - - 0.8
19/09:30pm -0.5 - - - - N 24 30 13 16 - - 0.8
19/09:00pm -0.5 - - - - NNW 33 46 18 25 - - 0.8
19/08:35pm -0.3 - - - - NNW 37 54 20 29 - - 0.8
19/08:34pm -0.2 - - - - NNW 37 54 20 29 - - 0.8
19/08:30pm -0.2 - - - - NNW 35 46 19 25 - - 0.8
19/08:00pm -0.1 - - - - N 35 50 19 27 - - 0.8
19/07:30pm -0.1 - - - - NNW 30 43 16 23 - - 0.8
19/07:27pm -0.1 - - - - NW 32 50 17 27 - - 0.8
19/07:10pm 0.2 - - - - NNW 33 54 18 29 - - 0.8
19/07:07pm 0.3 - - - - NNW 32 54 17 29 - - 0.8
19/07:00pm 0.9 - - - - N 32 43 17 23 - - 0.4
19/06:30pm 2.1 - - - - N 35 54 19 29 - - 0.0
19/06:01pm 2.5 - - - - N 43 61 23 33 - - 0.0
19/06:00pm 2.5 - - - - N 44 61 24 33 - - 0.0
19/05:33pm 3.0 - - - - N 39 57 21 31 - - 0.0
19/05:30pm 3.2 - - - - N 41 57 22 31 - - 0.0
19/05:00pm 3.0 - - - - N 41 56 22 30 - - 0.0
19/04:37pm 2.1 - - - - N 39 57 21 31 - - 0.0
19/04:30pm 2.2 - - - - N 37 52 20 28 - - 0.0
19/04:11pm 2.6 - - - - N 37 56 20 30 - - 0.0
19/04:00pm 2.3 - - - - N 35 52 19 28 - - 0.0
19/03:30pm 2.7 - - - - N 39 54 21 29 - - 0.0
19/03:16pm 2.5 - - - - N 33 52 18 28 - - 0.0
19/03:00pm 2.7 - - - - N 41 54 22 29 - - 0.0
19/02:50pm 3.0 - - - - N 35 54 19 29 - - 0.0
19/02:30pm 2.7 - - - - N 33 48 18 26 - - 0.0
19/02:12pm 3.3 - - - - N 30 54 16 29 - - 0.0
19/02:00pm 3.7 - - - - N 32 43 17 23 - - 0.0
19/01:30pm 3.2 - - - - NNW 24 35 13 19 - - 0.0
19/01:00pm 3.2 - - - - N 28 39 15 21 - - 0.0
19/12:30pm 1.9 - - - - NNW 26 44 14 24 - - 0.0
19/12:00pm 1.8 - - - - NNW 24 35 13 19 - - 0.0
19/11:30am 1.7 - - - - N 24 39 13 21 - - 0.0
19/11:00am 2.3 - - - - N 26 41 14 22 - - 0.0
19/10:30am 1.5 - - - - NNW 32 44 17 24 - - 0.0
19/10:08am 1.6 - - - - N 30 50 16 27 - - 0.0
19/10:00am 1.8 - - - - NNW 32 44 17 24 - - 0.0
19/09:30am 1.2 - - - - N 33 43 18 23 - - 0.0
19/09:00am 1.1 - - - - N 30 39 16 21 - - 0.0
19/08:30am 0.3 - - - - N 32 41 17 22 - - 0.0
19/08:00am -0.4 - - - - N 35 41 19 22 - - 0.0
19/07:30am -0.7 - - - - N 32 41 17 22 - - 0.0
19/07:00am -0.3 - - - - N 35 46 19 25 - - 0.0
19/06:30am -0.2 - - - - N 35 44 19 24 - - 0.0
19/06:00am -0.1 - - - - N 32 41 17 22 - - 0.0
19/05:30am 0.3 - - - - NNW 35 48 19 26 - - 0.0
19/05:00am 0.4 - - - - NNW 33 43 18 23 - - 0.0
19/04:30am 0.5 - - - - NW 32 39 17 21 - - 0.0
19/04:00am 0.6 - - - - NNW 24 32 13 17 - - 0.0

Other Formats:

Comma delimited format used in spreadsheet applications
http://www.bom.gov.au/fwo/IDV60801/IDV60801.94906.axf

JavaScript Object Notation format (JSON) in row-major order
http://www.bom.gov.au/fwo/IDV60801/IDV60801.94906.json